createdAt,value
2022-09-23T00:01:07.167Z,17.70
2022-09-23T00:04:02.170Z,17.70
2022-09-23T00:06:57.578Z,17.70
2022-09-23T00:09:52.889Z,17.70
2022-09-23T00:12:47.265Z,17.80
2022-09-23T00:15:42.023Z,17.90
2022-09-23T00:18:36.649Z,18.00
2022-09-23T00:21:31.758Z,18.10
2022-09-23T00:24:26.418Z,18.20
2022-09-23T00:27:22.742Z,18.30
2022-09-23T00:30:17.122Z,18.40
2022-09-23T00:33:11.549Z,18.50
2022-09-23T00:36:08.635Z,18.60
2022-09-23T00:39:05.420Z,18.70
2022-09-23T00:42:00.115Z,18.80
2022-09-23T00:44:57.381Z,18.90
2022-09-23T00:48:02.723Z,19.00
2022-09-23T00:50:57.787Z,18.90
2022-09-23T00:53:53.476Z,19.10
2022-09-23T00:56:48.167Z,19.10
2022-09-23T00:59:42.948Z,19.20
2022-09-23T01:02:39.064Z,19.30
2022-09-23T01:05:34.661Z,19.40
2022-09-23T01:08:29.811Z,19.60
2022-09-23T01:11:51.267Z,19.70
2022-09-23T01:15:03.073Z,19.70
2022-09-23T01:18:03.449Z,19.80
2022-09-23T01:21:00.557Z,19.90
2022-09-23T01:24:07.242Z,19.90
2022-09-23T01:27:04.396Z,20.00
2022-09-23T01:30:17.966Z,20.10
2022-09-23T01:33:41.742Z,20.30
2022-09-23T01:36:51.442Z,20.50
2022-09-23T01:40:21.562Z,20.60
2022-09-23T01:43:40.179Z,20.60
2022-09-23T01:47:04.293Z,20.50
2022-09-23T01:50:36.343Z,20.40
2022-09-23T01:53:47.043Z,20.20
2022-09-23T01:56:53.689Z,20.20
2022-09-23T01:59:58.169Z,20.10
2022-09-23T02:03:28.106Z,20.10
2022-09-23T02:06:33.984Z,20.20
2022-09-23T02:09:34.690Z,20.30
2022-09-23T02:12:32.007Z,20.40
2022-09-23T02:15:39.861Z,20.50
2022-09-23T02:18:47.436Z,20.50
2022-09-23T02:21:51.550Z,20.70
2022-09-23T02:24:46.477Z,20.80
2022-09-23T02:27:55.774Z,20.90
2022-09-23T02:31:02.245Z,21.00
2022-09-23T02:34:44.343Z,21.10
2022-09-23T02:37:55.095Z,21.10
2022-09-23T02:41:09.101Z,21.30
2022-09-23T02:44:17.509Z,21.20
2022-09-23T02:47:11.982Z,21.10
2022-09-23T02:50:07.803Z,20.90
2022-09-23T02:53:03.226Z,20.90
2022-09-23T02:55:58.025Z,20.70
2022-09-23T02:58:55.389Z,20.70
2022-09-23T03:02:10.736Z,20.80
2022-09-23T03:05:31.478Z,20.80
2022-09-23T03:08:57.936Z,20.90
2022-09-23T03:12:26.465Z,21.00
2022-09-23T03:16:02.510Z,21.20
2022-09-23T03:19:29.348Z,21.30
2022-09-23T03:22:40.729Z,21.20
2022-09-23T03:25:40.044Z,21.10
2022-09-23T03:28:38.187Z,21.10
2022-09-23T03:31:34.390Z,21.00
2022-09-23T03:34:33.546Z,21.00
2022-09-23T03:37:33.767Z,21.10
2022-09-23T03:40:28.389Z,21.20
2022-09-23T03:43:23.469Z,21.20
2022-09-23T03:46:19.661Z,21.10
2022-09-23T03:49:28.565Z,21.00
2022-09-23T03:52:25.553Z,21.10
2022-09-23T03:55:21.329Z,21.10
2022-09-23T03:58:15.936Z,21.30
2022-09-23T04:01:10.420Z,21.30
2022-09-23T04:04:04.860Z,21.40
2022-09-23T04:06:59.432Z,21.60
2022-09-23T04:09:54.461Z,21.60
2022-09-23T04:12:48.907Z,21.50
2022-09-23T04:15:43.665Z,21.50
2022-09-23T04:18:38.067Z,21.50
2022-09-23T04:21:32.881Z,21.50
2022-09-23T04:24:27.669Z,21.60
2022-09-23T04:27:22.083Z,21.60
2022-09-23T04:30:16.684Z,21.50
2022-09-23T04:33:12.519Z,21.40
2022-09-23T04:36:07.231Z,21.40
2022-09-23T04:39:01.753Z,21.20
2022-09-23T04:41:56.173Z,21.20
2022-09-23T04:44:50.586Z,21.10
2022-09-23T04:47:45.097Z,21.10
2022-09-23T04:50:40.694Z,21.10
2022-09-23T04:53:36.442Z,21.10
2022-09-23T04:56:35.248Z,21.10
2022-09-23T04:59:29.703Z,21.20
2022-09-23T05:02:24.583Z,21.20
2022-09-23T05:05:24.885Z,21.20
2022-09-23T05:08:19.704Z,21.20
2022-09-23T05:11:14.140Z,21.20
2022-09-23T05:14:08.684Z,21.20
2022-09-23T05:17:03.261Z,21.20
2022-09-23T05:19:59.239Z,21.20
2022-09-23T05:22:56.788Z,21.10
2022-09-23T05:25:51.929Z,21.00
2022-09-23T05:28:46.420Z,20.80
2022-09-23T05:31:40.906Z,20.80
2022-09-23T05:34:35.658Z,20.70
2022-09-23T05:37:30.164Z,20.70
2022-09-23T05:40:24.645Z,20.70
2022-09-23T05:43:19.187Z,20.60
2022-09-23T05:46:16.654Z,20.60
2022-09-23T05:49:11.320Z,20.50
2022-09-23T05:52:05.807Z,20.40
2022-09-23T05:55:00.243Z,20.50
2022-09-23T05:57:54.780Z,20.30
2022-09-23T06:00:50.571Z,20.20
2022-09-23T06:03:50.938Z,20.20
2022-09-23T06:06:45.714Z,20.20
2022-09-23T06:09:40.206Z,20.20
2022-09-23T06:12:36.201Z,20.20
2022-09-23T06:15:30.790Z,20.10
2022-09-23T06:18:25.271Z,20.10
2022-09-23T06:21:20.402Z,20.00
2022-09-23T06:24:19.599Z,19.90
2022-09-23T06:27:15.992Z,19.90
2022-09-23T06:30:10.914Z,19.90
2022-09-23T06:33:05.404Z,19.90
2022-09-23T06:36:01.275Z,19.70
2022-09-23T06:38:55.783Z,19.60
2022-09-23T06:41:51.192Z,19.40
2022-09-23T06:44:45.697Z,19.30
2022-09-23T06:47:40.815Z,19.30
2022-09-23T06:50:35.479Z,19.30
2022-09-23T06:53:32.648Z,19.30
2022-09-23T06:56:27.195Z,19.20
2022-09-23T06:59:21.690Z,19.10
2022-09-23T07:02:16.576Z,19.10
2022-09-23T07:05:11.531Z,19.10
2022-09-23T07:08:10.903Z,19.10
2022-09-23T07:11:08.573Z,19.10
2022-09-23T07:14:03.031Z,19.00
2022-09-23T07:16:57.520Z,18.90
2022-09-23T07:19:52.902Z,18.90
2022-09-23T07:22:53.609Z,18.90
2022-09-23T07:25:51.573Z,18.90
2022-09-23T07:28:46.983Z,18.90
2022-09-23T07:31:41.678Z,18.90
2022-09-23T07:34:36.206Z,18.90
2022-09-23T07:37:30.672Z,19.00
2022-09-23T07:40:25.185Z,19.00
2022-09-23T07:43:20.635Z,19.10
2022-09-23T07:46:18.623Z,19.00
2022-09-23T07:49:13.239Z,18.90
2022-09-23T07:52:07.772Z,18.90
2022-09-23T07:55:02.252Z,18.80
2022-09-23T07:57:56.718Z,18.70
2022-09-23T08:00:52.450Z,18.60
2022-09-23T08:03:47.872Z,18.60
2022-09-23T08:06:48.737Z,18.50
2022-09-23T08:09:45.193Z,18.50
2022-09-23T08:12:40.951Z,18.50
2022-09-23T08:15:35.610Z,18.40
2022-09-23T08:18:30.046Z,18.30
2022-09-23T08:21:25.050Z,18.20
2022-09-23T08:24:22.211Z,18.30
2022-09-23T08:27:16.880Z,18.30
2022-09-23T08:30:12.089Z,18.10
2022-09-23T08:33:06.758Z,18.10
2022-09-23T08:36:03.306Z,18.00
2022-09-23T08:38:58.586Z,17.90
2022-09-23T08:41:58.852Z,17.80
2022-09-23T08:44:56.274Z,17.70
2022-09-23T08:48:16.666Z,17.70
2022-09-23T08:51:37.496Z,17.60
2022-09-23T08:54:33.637Z,17.60
2022-09-23T08:58:24.323Z,17.60
2022-09-23T09:01:32.543Z,17.60
2022-09-23T09:04:51.495Z,17.50
2022-09-23T09:07:46.121Z,17.40
2022-09-23T09:10:49.209Z,17.30
2022-09-23T09:14:12.596Z,17.20
2022-09-23T09:17:15.206Z,17.10
2022-09-23T09:20:37.337Z,17.00
2022-09-23T09:23:57.296Z,16.90
2022-09-23T09:26:51.974Z,16.80
2022-09-23T09:29:56.042Z,16.70
2022-09-23T09:33:17.376Z,16.70
2022-09-23T09:36:27.298Z,16.70
2022-09-23T09:39:25.524Z,16.60
2022-09-23T09:42:37.014Z,16.60
2022-09-23T09:45:52.713Z,16.50
2022-09-23T09:49:24.578Z,16.40
2022-09-23T09:52:28.154Z,16.40
2022-09-23T09:55:30.934Z,16.40
2022-09-23T09:58:26.245Z,16.40
2022-09-23T10:01:22.236Z,16.40
2022-09-23T10:04:36.602Z,16.40
2022-09-23T10:07:33.903Z,16.40
2022-09-23T10:10:34.948Z,16.30
2022-09-23T10:13:31.413Z,16.30
2022-09-23T10:16:25.950Z,16.30
2022-09-23T10:19:33.114Z,16.30
2022-09-23T10:22:41.261Z,16.30
2022-09-23T10:25:38.179Z,16.30
2022-09-23T10:28:52.858Z,16.30
2022-09-23T10:31:47.390Z,16.20
2022-09-23T10:34:47.988Z,16.20
2022-09-23T10:37:58.484Z,16.20
2022-09-23T10:41:12.048Z,16.30
2022-09-23T10:44:55.802Z,16.20
2022-09-23T10:48:05.950Z,16.10
2022-09-23T10:51:01.235Z,15.90
2022-09-23T10:54:24.757Z,15.90
2022-09-23T10:57:42.412Z,15.80
2022-09-23T11:00:59.180Z,15.70
2022-09-23T11:04:09.524Z,15.60
2022-09-23T11:07:25.083Z,15.60
2022-09-23T11:10:51.072Z,15.60
2022-09-23T11:14:07.432Z,15.40
2022-09-23T11:17:22.403Z,15.40
2022-09-23T11:20:19.857Z,15.50
2022-09-23T11:23:38.580Z,15.50
2022-09-23T11:27:18.606Z,15.50
2022-09-23T11:30:14.895Z,15.50
2022-09-23T11:33:23.902Z,15.50
2022-09-23T11:36:25.400Z,15.50
2022-09-23T11:39:29.730Z,15.50
2022-09-23T11:42:42.814Z,15.50
2022-09-23T11:45:43.388Z,15.40
2022-09-23T11:48:44.251Z,15.40
2022-09-23T11:51:58.821Z,15.30
2022-09-23T11:55:22.537Z,15.20
2022-09-23T11:58:36.967Z,15.20
2022-09-23T12:01:45.716Z,15.20
2022-09-23T12:05:04.036Z,15.10
2022-09-23T12:07:58.145Z,15.10
2022-09-23T12:11:03.258Z,15.20
2022-09-23T12:14:07.756Z,15.10
2022-09-23T12:17:25.334Z,15.10
2022-09-23T12:20:43.602Z,15.20
2022-09-23T12:23:43.773Z,15.20
2022-09-23T12:26:40.428Z,15.20
2022-09-23T12:29:37.264Z,15.20
2022-09-23T12:32:32.554Z,15.20
2022-09-23T12:35:33.728Z,15.20
2022-09-23T12:38:54.509Z,15.20
2022-09-23T12:41:53.042Z,15.10
2022-09-23T12:44:50.043Z,15.10
2022-09-23T12:47:44.786Z,15.00
2022-09-23T12:51:20.866Z,15.00
2022-09-23T12:54:25.333Z,14.90
2022-09-23T12:57:37.970Z,14.90
2022-09-23T13:00:34.212Z,14.90
2022-09-23T13:03:47.101Z,14.90
2022-09-23T13:07:09.945Z,14.90
2022-09-23T13:10:34.141Z,14.90
2022-09-23T13:13:35.891Z,14.90
2022-09-23T13:16:35.737Z,14.90
2022-09-23T13:19:30.118Z,14.90
2022-09-23T13:23:03.718Z,14.90
2022-09-23T13:26:14.669Z,14.90
2022-09-23T13:29:15.915Z,14.90
2022-09-23T13:32:16.258Z,14.80
2022-09-23T13:35:48.942Z,14.80
2022-09-23T13:38:44.031Z,14.80
2022-09-23T13:41:38.662Z,14.80
2022-09-23T13:44:33.427Z,14.70
2022-09-23T13:47:31.180Z,14.70
2022-09-23T13:50:26.300Z,14.60
2022-09-23T13:53:24.521Z,14.60
2022-09-23T13:56:19.033Z,14.50
2022-09-23T13:59:42.921Z,14.40
2022-09-23T14:02:48.127Z,14.30
2022-09-23T14:05:43.403Z,14.30
2022-09-23T14:08:40.409Z,14.20
2022-09-23T14:11:36.801Z,14.10
2022-09-23T14:14:32.559Z,14.10
2022-09-23T14:17:27.037Z,14.10
2022-09-23T14:20:24.736Z,14.10
2022-09-23T14:23:20.237Z,14.10
2022-09-23T14:26:14.661Z,14.10
2022-09-23T14:29:22.338Z,14.10
2022-09-23T14:32:26.447Z,14.10
2022-09-23T14:35:25.378Z,14.10
2022-09-23T14:38:49.107Z,14.10
2022-09-23T14:41:46.688Z,14.00
2022-09-23T14:44:41.816Z,14.00
2022-09-23T14:47:37.667Z,13.90
2022-09-23T14:50:48.294Z,13.90
2022-09-23T14:53:44.945Z,14.00
2022-09-23T14:56:45.211Z,14.00
2022-09-23T14:59:41.174Z,14.00
2022-09-23T15:02:40.777Z,14.00
2022-09-23T15:05:43.949Z,14.00
2022-09-23T15:08:38.612Z,14.00
2022-09-23T15:11:33.279Z,14.00
2022-09-23T15:14:38.732Z,14.00
2022-09-23T15:17:38.833Z,14.00
2022-09-23T15:20:34.404Z,14.00
2022-09-23T15:23:49.923Z,14.00
2022-09-23T15:26:50.596Z,14.00
2022-09-23T15:29:45.176Z,14.00
2022-09-23T15:32:41.841Z,14.00
2022-09-23T15:35:37.824Z,13.90
2022-09-23T15:38:32.520Z,14.00
2022-09-23T15:41:27.078Z,13.90
2022-09-23T15:44:23.006Z,13.90
2022-09-23T15:47:19.963Z,13.90
2022-09-23T15:50:15.085Z,13.80
2022-09-23T15:53:10.035Z,13.70
2022-09-23T15:56:05.485Z,13.70
2022-09-23T15:59:00.050Z,13.70
2022-09-23T16:01:57.188Z,13.70
2022-09-23T16:04:52.301Z,13.70
2022-09-23T16:07:49.539Z,13.70
2022-09-23T16:10:44.035Z,13.70
2022-09-23T16:13:38.428Z,13.60
2022-09-23T16:16:32.960Z,13.50
2022-09-23T16:19:27.380Z,13.50
2022-09-23T16:22:22.036Z,13.50
2022-09-23T16:25:16.843Z,13.40
2022-09-23T16:28:12.502Z,13.40
2022-09-23T16:31:07.482Z,13.30
2022-09-23T16:34:03.627Z,13.30
2022-09-23T16:36:58.019Z,13.20
2022-09-23T16:39:52.846Z,13.20
2022-09-23T16:42:47.814Z,13.20
2022-09-23T16:45:42.350Z,13.10
2022-09-23T16:48:41.914Z,13.10
2022-09-23T16:51:39.586Z,13.00
2022-09-23T16:54:33.999Z,13.00
2022-09-23T16:57:31.246Z,12.90
2022-09-23T17:00:43.449Z,12.90
2022-09-23T17:03:43.955Z,12.90
2022-09-23T17:06:44.115Z,12.80
2022-09-23T17:09:38.544Z,12.70
2022-09-23T17:12:36.310Z,12.70
2022-09-23T17:15:30.924Z,12.70
2022-09-23T17:18:25.365Z,12.60
2022-09-23T17:21:19.901Z,12.60
2022-09-23T17:24:14.328Z,12.50
2022-09-23T17:27:08.768Z,12.50
2022-09-23T17:30:03.587Z,12.40
2022-09-23T17:32:58.042Z,12.40
2022-09-23T17:35:53.231Z,12.30
2022-09-23T17:38:49.238Z,12.30
2022-09-23T17:41:43.611Z,12.20
2022-09-23T17:44:38.728Z,12.10
2022-09-23T17:47:34.548Z,12.00
2022-09-23T17:50:32.423Z,11.90
2022-09-23T17:53:27.461Z,11.90
2022-09-23T17:56:27.557Z,11.90
2022-09-23T17:59:21.992Z,12.00
2022-09-23T18:02:16.618Z,11.90
2022-09-23T18:05:11.367Z,11.90
2022-09-23T18:08:06.201Z,11.90
2022-09-23T18:11:00.612Z,11.90
2022-09-23T18:13:57.662Z,11.80
2022-09-23T18:16:57.516Z,11.80
2022-09-23T18:19:52.051Z,11.80
2022-09-23T18:22:46.409Z,11.80
2022-09-23T18:25:40.901Z,11.70
2022-09-23T18:28:35.306Z,11.70
2022-09-23T18:31:35.494Z,11.70
2022-09-23T18:34:30.222Z,11.70
2022-09-23T18:37:24.715Z,11.70
2022-09-23T18:40:20.175Z,11.70
2022-09-23T18:43:18.335Z,11.70
2022-09-23T18:46:20.027Z,11.80
2022-09-23T18:49:32.656Z,11.80
2022-09-23T18:52:28.374Z,11.80
2022-09-23T18:55:22.799Z,11.80
2022-09-23T18:58:17.233Z,11.90
2022-09-23T19:01:12.462Z,11.80
2022-09-23T19:04:08.441Z,11.80
2022-09-23T19:07:02.933Z,11.80
2022-09-23T19:09:57.311Z,11.90
2022-09-23T19:12:51.854Z,11.90
2022-09-23T19:15:46.324Z,11.80
2022-09-23T19:18:42.613Z,11.80
2022-09-23T19:21:38.236Z,11.80
2022-09-23T19:24:32.773Z,11.80
2022-09-23T19:27:27.175Z,11.80
2022-09-23T19:30:21.643Z,11.70
2022-09-23T19:33:16.080Z,11.70
2022-09-23T19:36:11.865Z,11.60
2022-09-23T19:39:09.749Z,11.60
2022-09-23T19:42:04.659Z,11.60
2022-09-23T19:44:59.069Z,11.60
2022-09-23T19:48:00.229Z,11.50
2022-09-23T19:50:54.624Z,11.50
2022-09-23T19:53:49.350Z,11.50
2022-09-23T19:56:43.741Z,11.40
2022-09-23T19:59:39.785Z,11.40
2022-09-23T20:02:34.245Z,11.40
2022-09-23T20:05:31.894Z,11.30
2022-09-23T20:08:28.316Z,11.30
2022-09-23T20:11:28.188Z,11.30
2022-09-23T20:14:23.949Z,11.20
2022-09-23T20:17:20.388Z,11.20
2022-09-23T20:20:17.035Z,11.10
2022-09-23T20:23:11.525Z,11.10
2022-09-23T20:26:25.785Z,11.10
2022-09-23T20:29:20.240Z,11.10
2022-09-23T20:32:14.988Z,11.10
2022-09-23T20:35:09.779Z,11.00
2022-09-23T20:38:07.918Z,11.00
2022-09-23T20:41:03.241Z,11.00
2022-09-23T20:44:00.808Z,10.90
2022-09-23T20:46:55.328Z,10.90
2022-09-23T20:49:50.152Z,10.90
2022-09-23T20:52:44.589Z,10.90
2022-09-23T20:55:39.285Z,10.90
2022-09-23T20:58:37.781Z,10.90
2022-09-23T21:01:36.428Z,11.00
2022-09-23T21:04:31.636Z,11.00
2022-09-23T21:07:26.163Z,11.00
2022-09-23T21:10:22.969Z,11.00
2022-09-23T21:13:17.414Z,11.00
2022-09-23T21:16:17.303Z,11.00
2022-09-23T21:19:11.726Z,11.00
2022-09-23T21:22:06.167Z,11.10
2022-09-23T21:28:15.083Z,11.10
2022-09-23T21:31:12.625Z,11.20
2022-09-23T21:34:09.697Z,11.20
2022-09-23T21:37:04.517Z,11.30
2022-09-23T21:40:17.473Z,11.40
2022-09-23T21:43:11.973Z,11.40
2022-09-23T21:46:09.114Z,11.50
2022-09-23T21:49:04.941Z,11.40
2022-09-23T21:52:01.997Z,11.50
2022-09-23T21:54:56.394Z,11.60
2022-09-23T21:57:52.840Z,11.80
2022-09-23T22:00:48.356Z,12.10
2022-09-23T22:03:44.684Z,12.60
2022-09-23T22:06:42.780Z,13.60
2022-09-23T22:09:37.380Z,15.20
2022-09-23T22:12:31.772Z,16.70
2022-09-23T22:15:26.291Z,18.00
2022-09-23T22:18:21.243Z,19.10
2022-09-23T22:21:15.686Z,19.70
2022-09-23T22:24:11.574Z,20.80
2022-09-23T22:27:06.095Z,21.60
2022-09-23T22:30:18.455Z,22.40
2022-09-23T22:33:16.101Z,23.30
2022-09-23T22:36:12.754Z,24.20
2022-09-23T22:39:07.292Z,25.00
2022-09-23T22:42:01.694Z,25.70
2022-09-23T22:44:59.455Z,26.30
2022-09-23T22:47:54.473Z,26.80
2022-09-23T22:50:49.125Z,27.00
2022-09-23T22:53:43.510Z,27.20
2022-09-23T22:56:38.756Z,27.40
2022-09-23T22:59:33.170Z,27.30
2022-09-23T23:02:27.620Z,27.00
2022-09-23T23:05:22.000Z,27.30
2022-09-23T23:08:18.457Z,26.90
2022-09-23T23:11:14.146Z,25.80
2022-09-23T23:14:08.760Z,24.80
2022-09-23T23:17:03.275Z,23.70
2022-09-23T23:19:57.891Z,23.00
2022-09-23T23:22:52.253Z,22.30
2022-09-23T23:25:46.817Z,21.90
2022-09-23T23:28:45.977Z,21.50
2022-09-23T23:31:40.818Z,21.40
2022-09-23T23:34:35.326Z,21.30
2022-09-23T23:37:31.180Z,21.10
2022-09-23T23:40:25.566Z,21.00
2022-09-23T23:43:20.858Z,20.80
2022-09-23T23:46:16.615Z,20.50
2022-09-23T23:49:11.053Z,20.00
2022-09-23T23:52:05.482Z,19.70
2022-09-23T23:54:59.954Z,19.40
2022-09-23T23:57:54.917Z,19.10
